sensor_id;sensor_type;location;lat;lon;timestamp;temperature;humidity
44851;DHT22;30583;48.714;9.386;2022-08-02T00:00:51;24.50;63.50
44851;DHT22;30583;48.714;9.386;2022-08-02T00:03:17;24.70;63.10
44851;DHT22;30583;48.714;9.386;2022-08-02T00:05:42;24.60;63.60
44851;DHT22;30583;48.714;9.386;2022-08-02T00:08:08;24.60;63.40
44851;DHT22;30583;48.714;9.386;2022-08-02T00:10:34;24.50;63.50
44851;DHT22;30583;48.714;9.386;2022-08-02T00:12:59;24.60;63.10
44851;DHT22;30583;48.714;9.386;2022-08-02T00:15:25;24.50;63.60
44851;DHT22;30583;48.714;9.386;2022-08-02T00:17:51;24.40;63.20
44851;DHT22;30583;48.714;9.386;2022-08-02T00:20:16;24.30;63.20
44851;DHT22;30583;48.714;9.386;2022-08-02T00:22:42;24.20;63.20
44851;DHT22;30583;48.714;9.386;2022-08-02T00:25:08;24.30;63.10
44851;DHT22;30583;48.714;9.386;2022-08-02T00:27:34;24.20;63.30
44851;DHT22;30583;48.714;9.386;2022-08-02T00:29:59;24.20;62.90
44851;DHT22;30583;48.714;9.386;2022-08-02T00:32:25;24.30;62.70
44851;DHT22;30583;48.714;9.386;2022-08-02T00:34:50;24.20;62.30
44851;DHT22;30583;48.714;9.386;2022-08-02T00:37:16;24.10;63.00
44851;DHT22;30583;48.714;9.386;2022-08-02T00:39:42;24.20;62.70
44851;DHT22;30583;48.714;9.386;2022-08-02T00:42:08;24.30;62.40
44851;DHT22;30583;48.714;9.386;2022-08-02T00:44:34;24.20;62.80
44851;DHT22;30583;48.714;9.386;2022-08-02T00:47:00;23.80;63.90
44851;DHT22;30583;48.714;9.386;2022-08-02T00:49:26;24.20;63.70
44851;DHT22;30583;48.714;9.386;2022-08-02T00:51:51;24.30;63.30
44851;DHT22;30583;48.714;9.386;2022-08-02T00:54:17;24.40;62.60
44851;DHT22;30583;48.714;9.386;2022-08-02T00:56:43;24.40;62.70
44851;DHT22;30583;48.714;9.386;2022-08-02T00:59:09;24.20;63.00
44851;DHT22;30583;48.714;9.386;2022-08-02T01:01:34;24.20;62.70
44851;DHT22;30583;48.714;9.386;2022-08-02T01:04:13;24.20;62.10
44851;DHT22;30583;48.714;9.386;2022-08-02T01:06:40;24.10;62.50
44851;DHT22;30583;48.714;9.386;2022-08-02T01:09:07;24.10;62.30
44851;DHT22;30583;48.714;9.386;2022-08-02T01:11:34;23.90;62.60
44851;DHT22;30583;48.714;9.386;2022-08-02T01:14:09;23.80;62.60
44851;DHT22;30583;48.714;9.386;2022-08-02T01:16:50;23.80;62.60
44851;DHT22;30583;48.714;9.386;2022-08-02T01:24:47;23.80;63.00
44851;DHT22;30583;48.714;9.386;2022-08-02T01:30:02;24.10;62.20
44851;DHT22;30583;48.714;9.386;2022-08-02T01:32:32;23.90;62.40
44851;DHT22;30583;48.714;9.386;2022-08-02T01:35:09;23.80;62.40
44851;DHT22;30583;48.714;9.386;2022-08-02T01:37:56;23.80;62.70
44851;DHT22;30583;48.714;9.386;2022-08-02T01:40:28;23.90;62.80
44851;DHT22;30583;48.714;9.386;2022-08-02T01:42:55;23.70;63.00
44851;DHT22;30583;48.714;9.386;2022-08-02T01:45:24;23.70;63.20
44851;DHT22;30583;48.714;9.386;2022-08-02T01:47:51;23.70;63.30
44851;DHT22;30583;48.714;9.386;2022-08-02T01:50:31;23.60;63.60
44851;DHT22;30583;48.714;9.386;2022-08-02T01:53:01;23.70;63.50
44851;DHT22;30583;48.714;9.386;2022-08-02T01:55:38;23.70;63.60
44851;DHT22;30583;48.714;9.386;2022-08-02T01:58:06;23.90;62.50
44851;DHT22;30583;48.714;9.386;2022-08-02T02:00:35;23.80;62.90
44851;DHT22;30583;48.714;9.386;2022-08-02T02:03:05;23.90;62.60
44851;DHT22;30583;48.714;9.386;2022-08-02T02:05:31;23.40;63.20
44851;DHT22;30583;48.714;9.386;2022-08-02T02:07:59;22.70;65.60
44851;DHT22;30583;48.714;9.386;2022-08-02T02:10:32;22.40;66.80
44851;DHT22;30583;48.714;9.386;2022-08-02T02:13:04;22.30;67.00
44851;DHT22;30583;48.714;9.386;2022-08-02T02:15:31;22.10;68.10
44851;DHT22;30583;48.714;9.386;2022-08-02T02:17:58;22.00;68.80
44851;DHT22;30583;48.714;9.386;2022-08-02T02:20:25;21.70;69.40
44851;DHT22;30583;48.714;9.386;2022-08-02T02:22:51;21.70;69.50
44851;DHT22;30583;48.714;9.386;2022-08-02T02:25:21;21.50;69.80
44851;DHT22;30583;48.714;9.386;2022-08-02T02:27:53;21.60;69.70
44851;DHT22;30583;48.714;9.386;2022-08-02T02:30:21;21.30;70.10
44851;DHT22;30583;48.714;9.386;2022-08-02T02:32:49;21.50;70.20
44851;DHT22;30583;48.714;9.386;2022-08-02T02:35:18;21.20;71.10
44851;DHT22;30583;48.714;9.386;2022-08-02T02:37:47;20.70;73.00
44851;DHT22;30583;48.714;9.386;2022-08-02T02:40:15;20.90;72.50
44851;DHT22;30583;48.714;9.386;2022-08-02T02:42:43;21.10;72.10
44851;DHT22;30583;48.714;9.386;2022-08-02T02:45:10;21.20;71.10
44851;DHT22;30583;48.714;9.386;2022-08-02T02:47:37;20.90;71.80
44851;DHT22;30583;48.714;9.386;2022-08-02T02:50:03;20.90;72.20
44851;DHT22;30583;48.714;9.386;2022-08-02T02:52:30;21.20;71.40
44851;DHT22;30583;48.714;9.386;2022-08-02T02:54:56;20.90;71.90
44851;DHT22;30583;48.714;9.386;2022-08-02T02:57:23;21.00;71.90
44851;DHT22;30583;48.714;9.386;2022-08-02T02:59:49;20.80;72.30
44851;DHT22;30583;48.714;9.386;2022-08-02T03:02:16;20.70;72.80
44851;DHT22;30583;48.714;9.386;2022-08-02T03:04:42;21.00;72.20
44851;DHT22;30583;48.714;9.386;2022-08-02T03:07:09;20.80;73.00
44851;DHT22;30583;48.714;9.386;2022-08-02T03:09:34;20.80;73.10
44851;DHT22;30583;48.714;9.386;2022-08-02T03:12:01;20.70;73.80
44851;DHT22;30583;48.714;9.386;2022-08-02T03:14:27;20.80;73.20
44851;DHT22;30583;48.714;9.386;2022-08-02T03:16:54;21.00;72.70
44851;DHT22;30583;48.714;9.386;2022-08-02T03:19:20;21.00;72.60
44851;DHT22;30583;48.714;9.386;2022-08-02T03:21:48;21.00;72.70
44851;DHT22;30583;48.714;9.386;2022-08-02T03:24:15;21.00;72.50
44851;DHT22;30583;48.714;9.386;2022-08-02T03:26:41;20.80;73.10
44851;DHT22;30583;48.714;9.386;2022-08-02T03:29:07;20.70;73.20
44851;DHT22;30583;48.714;9.386;2022-08-02T03:31:33;20.60;73.80
44851;DHT22;30583;48.714;9.386;2022-08-02T03:34:00;20.50;74.10
44851;DHT22;30583;48.714;9.386;2022-08-02T03:36:29;20.50;74.10
44851;DHT22;30583;48.714;9.386;2022-08-02T03:38:56;20.70;73.60
44851;DHT22;30583;48.714;9.386;2022-08-02T03:41:22;20.70;73.70
44851;DHT22;30583;48.714;9.386;2022-08-02T03:43:49;20.50;74.30
44851;DHT22;30583;48.714;9.386;2022-08-02T03:46:19;20.40;74.50
44851;DHT22;30583;48.714;9.386;2022-08-02T03:48:46;20.30;74.90
44851;DHT22;30583;48.714;9.386;2022-08-02T03:51:13;20.30;74.80
44851;DHT22;30583;48.714;9.386;2022-08-02T03:53:39;20.20;75.20
44851;DHT22;30583;48.714;9.386;2022-08-02T03:56:06;20.40;75.00
44851;DHT22;30583;48.714;9.386;2022-08-02T03:58:33;20.20;75.40
44851;DHT22;30583;48.714;9.386;2022-08-02T04:00:59;20.40;75.00
44851;DHT22;30583;48.714;9.386;2022-08-02T04:03:25;20.30;75.00
44851;DHT22;30583;48.714;9.386;2022-08-02T04:05:51;20.40;74.80
44851;DHT22;30583;48.714;9.386;2022-08-02T04:08:17;20.40;74.50
44851;DHT22;30583;48.714;9.386;2022-08-02T04:10:42;20.50;73.90
44851;DHT22;30583;48.714;9.386;2022-08-02T04:13:27;20.40;73.90
44851;DHT22;30583;48.714;9.386;2022-08-02T04:15:57;20.20;74.60
44851;DHT22;30583;48.714;9.386;2022-08-02T04:18:29;20.60;73.30
44851;DHT22;30583;48.714;9.386;2022-08-02T04:20:58;20.40;73.70
44851;DHT22;30583;48.714;9.386;2022-08-02T04:23:25;22.00;67.80
44851;DHT22;30583;48.714;9.386;2022-08-02T04:25:52;22.80;64.80
44851;DHT22;30583;48.714;9.386;2022-08-02T04:28:19;23.00;64.40
44851;DHT22;30583;48.714;9.386;2022-08-02T04:30:46;23.10;63.10
44851;DHT22;30583;48.714;9.386;2022-08-02T04:33:13;23.20;63.00
44851;DHT22;30583;48.714;9.386;2022-08-02T04:35:39;23.20;63.20
44851;DHT22;30583;48.714;9.386;2022-08-02T04:38:05;22.90;63.80
44851;DHT22;30583;48.714;9.386;2022-08-02T04:40:30;22.90;64.20
44851;DHT22;30583;48.714;9.386;2022-08-02T04:42:56;22.90;64.20
44851;DHT22;30583;48.714;9.386;2022-08-02T04:45:22;22.90;64.20
44851;DHT22;30583;48.714;9.386;2022-08-02T04:47:49;22.80;64.60
44851;DHT22;30583;48.714;9.386;2022-08-02T04:50:14;22.80;64.60
44851;DHT22;30583;48.714;9.386;2022-08-02T04:52:40;22.80;65.80
44851;DHT22;30583;48.714;9.386;2022-08-02T04:55:06;22.90;67.20
44851;DHT22;30583;48.714;9.386;2022-08-02T04:57:31;23.00;65.80
44851;DHT22;30583;48.714;9.386;2022-08-02T05:00:16;23.00;65.30
44851;DHT22;30583;48.714;9.386;2022-08-02T05:02:42;23.00;65.30
44851;DHT22;30583;48.714;9.386;2022-08-02T05:05:07;23.00;66.00
44851;DHT22;30583;48.714;9.386;2022-08-02T05:07:33;23.00;65.50
44851;DHT22;30583;48.714;9.386;2022-08-02T05:09:58;22.70;66.20
44851;DHT22;30583;48.714;9.386;2022-08-02T05:12:24;21.50;70.50
44851;DHT22;30583;48.714;9.386;2022-08-02T05:14:50;21.00;72.70
44851;DHT22;30583;48.714;9.386;2022-08-02T05:17:16;20.60;74.90
44851;DHT22;30583;48.714;9.386;2022-08-02T05:19:41;20.40;75.50
44851;DHT22;30583;48.714;9.386;2022-08-02T05:22:07;20.50;75.50
44851;DHT22;30583;48.714;9.386;2022-08-02T05:24:33;20.60;75.40
44851;DHT22;30583;48.714;9.386;2022-08-02T05:26:58;20.60;75.40
44851;DHT22;30583;48.714;9.386;2022-08-02T05:29:24;20.40;76.00
44851;DHT22;30583;48.714;9.386;2022-08-02T05:31:49;20.60;75.70
44851;DHT22;30583;48.714;9.386;2022-08-02T05:34:15;20.60;75.90
44851;DHT22;30583;48.714;9.386;2022-08-02T05:36:41;20.60;76.10
44851;DHT22;30583;48.714;9.386;2022-08-02T05:39:07;20.70;75.80
44851;DHT22;30583;48.714;9.386;2022-08-02T05:41:33;20.70;76.00
44851;DHT22;30583;48.714;9.386;2022-08-02T05:43:59;20.60;76.40
44851;DHT22;30583;48.714;9.386;2022-08-02T05:46:25;20.60;76.60
44851;DHT22;30583;48.714;9.386;2022-08-02T05:48:50;20.80;76.20
44851;DHT22;30583;48.714;9.386;2022-08-02T05:51:22;20.60;76.70
44851;DHT22;30583;48.714;9.386;2022-08-02T05:54:00;20.70;76.40
44851;DHT22;30583;48.714;9.386;2022-08-02T05:56:50;20.50;76.90
44851;DHT22;30583;48.714;9.386;2022-08-02T05:59:38;20.60;77.00
44851;DHT22;30583;48.714;9.386;2022-08-02T06:05:02;20.60;76.40
44851;DHT22;30583;48.714;9.386;2022-08-02T06:07:29;20.90;75.90
44851;DHT22;30583;48.714;9.386;2022-08-02T06:09:55;20.70;76.80
44851;DHT22;30583;48.714;9.386;2022-08-02T06:12:25;20.60;76.90
44851;DHT22;30583;48.714;9.386;2022-08-02T06:14:53;20.80;76.20
44851;DHT22;30583;48.714;9.386;2022-08-02T06:17:20;20.90;76.00
44851;DHT22;30583;48.714;9.386;2022-08-02T06:19:46;20.90;76.00
44851;DHT22;30583;48.714;9.386;2022-08-02T06:22:13;21.10;75.50
44851;DHT22;30583;48.714;9.386;2022-08-02T06:24:44;21.10;75.60
44851;DHT22;30583;48.714;9.386;2022-08-02T06:27:13;20.80;76.90
44851;DHT22;30583;48.714;9.386;2022-08-02T06:29:42;21.10;76.00
44851;DHT22;30583;48.714;9.386;2022-08-02T06:32:09;20.90;76.70
44851;DHT22;30583;48.714;9.386;2022-08-02T06:34:38;21.10;76.40
44851;DHT22;30583;48.714;9.386;2022-08-02T06:40:17;21.00;76.50
44851;DHT22;30583;48.714;9.386;2022-08-02T06:45:14;21.20;76.00
44851;DHT22;30583;48.714;9.386;2022-08-02T06:47:40;21.30;76.00
44851;DHT22;30583;48.714;9.386;2022-08-02T06:50:06;21.10;76.50
44851;DHT22;30583;48.714;9.386;2022-08-02T06:52:31;21.20;76.00
44851;DHT22;30583;48.714;9.386;2022-08-02T06:54:59;20.70;77.40
44851;DHT22;30583;48.714;9.386;2022-08-02T06:57:26;21.10;76.60
44851;DHT22;30583;48.714;9.386;2022-08-02T06:59:51;21.20;75.90
44851;DHT22;30583;48.714;9.386;2022-08-02T07:02:17;21.20;76.10
44851;DHT22;30583;48.714;9.386;2022-08-02T07:04:43;21.30;76.50
44851;DHT22;30583;48.714;9.386;2022-08-02T07:07:08;21.30;76.70
44851;DHT22;30583;48.714;9.386;2022-08-02T07:09:34;21.40;76.60
44851;DHT22;30583;48.714;9.386;2022-08-02T07:12:00;21.40;76.50
44851;DHT22;30583;48.714;9.386;2022-08-02T07:14:26;21.40;76.60
44851;DHT22;30583;48.714;9.386;2022-08-02T07:16:51;21.60;76.00
44851;DHT22;30583;48.714;9.386;2022-08-02T07:19:17;21.70;75.70
44851;DHT22;30583;48.714;9.386;2022-08-02T07:21:43;21.80;75.40
44851;DHT22;30583;48.714;9.386;2022-08-02T07:24:09;21.70;75.50
44851;DHT22;30583;48.714;9.386;2022-08-02T07:26:34;21.60;76.10
44851;DHT22;30583;48.714;9.386;2022-08-02T07:29:00;21.70;76.00
44851;DHT22;30583;48.714;9.386;2022-08-02T07:31:27;21.70;76.20
44851;DHT22;30583;48.714;9.386;2022-08-02T07:33:52;21.60;76.60
44851;DHT22;30583;48.714;9.386;2022-08-02T07:36:18;21.70;76.20
44851;DHT22;30583;48.714;9.386;2022-08-02T07:38:43;21.70;76.60
44851;DHT22;30583;48.714;9.386;2022-08-02T07:41:09;21.70;76.50
44851;DHT22;30583;48.714;9.386;2022-08-02T07:43:35;21.50;76.20
44851;DHT22;30583;48.714;9.386;2022-08-02T07:46:00;21.60;76.00
44851;DHT22;30583;48.714;9.386;2022-08-02T07:48:26;21.80;75.50
44851;DHT22;30583;48.714;9.386;2022-08-02T07:50:52;22.00;74.20
44851;DHT22;30583;48.714;9.386;2022-08-02T07:53:18;22.10;73.80
44851;DHT22;30583;48.714;9.386;2022-08-02T07:55:43;22.50;71.40
44851;DHT22;30583;48.714;9.386;2022-08-02T07:58:10;22.60;70.00
44851;DHT22;30583;48.714;9.386;2022-08-02T08:00:35;22.50;70.20
44851;DHT22;30583;48.714;9.386;2022-08-02T08:03:01;22.50;70.60
44851;DHT22;30583;48.714;9.386;2022-08-02T08:05:27;22.50;69.50
44851;DHT22;30583;48.714;9.386;2022-08-02T08:07:52;22.30;69.90
44851;DHT22;30583;48.714;9.386;2022-08-02T08:10:18;22.50;70.00
44851;DHT22;30583;48.714;9.386;2022-08-02T08:12:43;22.30;71.00
44851;DHT22;30583;48.714;9.386;2022-08-02T08:15:09;22.80;70.30
44851;DHT22;30583;48.714;9.386;2022-08-02T08:17:36;22.90;68.80
44851;DHT22;30583;48.714;9.386;2022-08-02T08:20:03;23.00;69.20
44851;DHT22;30583;48.714;9.386;2022-08-02T08:22:29;23.10;69.10
44851;DHT22;30583;48.714;9.386;2022-08-02T08:24:54;23.10;69.20
44851;DHT22;30583;48.714;9.386;2022-08-02T08:27:20;23.00;67.90
44851;DHT22;30583;48.714;9.386;2022-08-02T08:29:48;23.10;67.60
44851;DHT22;30583;48.714;9.386;2022-08-02T08:32:14;23.10;68.60
44851;DHT22;30583;48.714;9.386;2022-08-02T08:34:39;22.90;68.70
44851;DHT22;30583;48.714;9.386;2022-08-02T08:37:05;23.20;68.30
44851;DHT22;30583;48.714;9.386;2022-08-02T08:39:31;23.40;67.50
44851;DHT22;30583;48.714;9.386;2022-08-02T08:41:56;22.90;67.20
44851;DHT22;30583;48.714;9.386;2022-08-02T08:44:22;23.10;67.10
44851;DHT22;30583;48.714;9.386;2022-08-02T08:46:48;23.30;67.70
44851;DHT22;30583;48.714;9.386;2022-08-02T08:49:29;23.40;66.30
44851;DHT22;30583;48.714;9.386;2022-08-02T08:51:55;23.40;65.90
44851;DHT22;30583;48.714;9.386;2022-08-02T08:54:24;23.40;65.30
44851;DHT22;30583;48.714;9.386;2022-08-02T08:56:54;23.40;65.80
44851;DHT22;30583;48.714;9.386;2022-08-02T08:59:19;23.50;65.10
44851;DHT22;30583;48.714;9.386;2022-08-02T09:01:45;23.70;64.90
44851;DHT22;30583;48.714;9.386;2022-08-02T09:04:11;23.80;65.10
44851;DHT22;30583;48.714;9.386;2022-08-02T09:06:40;24.00;65.20
44851;DHT22;30583;48.714;9.386;2022-08-02T09:09:05;24.20;64.60
44851;DHT22;30583;48.714;9.386;2022-08-02T09:11:31;24.30;65.50
44851;DHT22;30583;48.714;9.386;2022-08-02T09:13:58;24.30;63.90
44851;DHT22;30583;48.714;9.386;2022-08-02T09:16:41;24.40;63.50
44851;DHT22;30583;48.714;9.386;2022-08-02T09:19:21;24.50;63.40
44851;DHT22;30583;48.714;9.386;2022-08-02T09:21:49;24.60;63.10
44851;DHT22;30583;48.714;9.386;2022-08-02T09:24:22;24.40;64.60
44851;DHT22;30583;48.714;9.386;2022-08-02T09:26:49;24.60;63.30
44851;DHT22;30583;48.714;9.386;2022-08-02T09:29:16;24.90;62.30
44851;DHT22;30583;48.714;9.386;2022-08-02T09:31:42;25.00;61.60
44851;DHT22;30583;48.714;9.386;2022-08-02T09:34:08;24.90;61.50
44851;DHT22;30583;48.714;9.386;2022-08-02T09:36:44;25.10;61.30
44851;DHT22;30583;48.714;9.386;2022-08-02T09:39:13;24.90;60.50
44851;DHT22;30583;48.714;9.386;2022-08-02T09:41:40;24.70;60.80
44851;DHT22;30583;48.714;9.386;2022-08-02T09:44:08;24.90;62.80
44851;DHT22;30583;48.714;9.386;2022-08-02T09:46:40;25.20;62.70
44851;DHT22;30583;48.714;9.386;2022-08-02T09:49:12;25.40;61.70
44851;DHT22;30583;48.714;9.386;2022-08-02T09:51:39;25.60;60.90
44851;DHT22;30583;48.714;9.386;2022-08-02T09:54:07;25.70;61.00
44851;DHT22;30583;48.714;9.386;2022-08-02T09:56:47;25.70;60.80
44851;DHT22;30583;48.714;9.386;2022-08-02T09:59:15;25.80;60.30
44851;DHT22;30583;48.714;9.386;2022-08-02T10:01:43;26.00;61.10
44851;DHT22;30583;48.714;9.386;2022-08-02T10:04:11;26.20;59.30
44851;DHT22;30583;48.714;9.386;2022-08-02T10:06:39;26.30;59.20
44851;DHT22;30583;48.714;9.386;2022-08-02T10:09:06;26.20;59.20
44851;DHT22;30583;48.714;9.386;2022-08-02T10:11:33;26.20;58.10
44851;DHT22;30583;48.714;9.386;2022-08-02T10:14:01;26.50;59.20
44851;DHT22;30583;48.714;9.386;2022-08-02T10:16:27;26.40;59.90
44851;DHT22;30583;48.714;9.386;2022-08-02T10:18:54;26.60;59.30
44851;DHT22;30583;48.714;9.386;2022-08-02T10:21:39;26.40;57.30
44851;DHT22;30583;48.714;9.386;2022-08-02T10:24:14;26.00;57.90
44851;DHT22;30583;48.714;9.386;2022-08-02T10:26:42;26.70;58.70
44851;DHT22;30583;48.714;9.386;2022-08-02T10:29:10;26.90;56.70
44851;DHT22;30583;48.714;9.386;2022-08-02T10:31:42;26.70;55.60
44851;DHT22;30583;48.714;9.386;2022-08-02T10:34:15;26.90;57.70
44851;DHT22;30583;48.714;9.386;2022-08-02T10:36:42;26.80;56.00
44851;DHT22;30583;48.714;9.386;2022-08-02T10:39:09;26.50;56.50
44851;DHT22;30583;48.714;9.386;2022-08-02T10:41:42;27.00;55.90
44851;DHT22;30583;48.714;9.386;2022-08-02T10:44:27;26.50;53.70
44851;DHT22;30583;48.714;9.386;2022-08-02T10:47:18;27.00;55.10
44851;DHT22;30583;48.714;9.386;2022-08-02T10:49:57;27.40;53.50
44851;DHT22;30583;48.714;9.386;2022-08-02T10:52:24;26.20;55.90
44851;DHT22;30583;48.714;9.386;2022-08-02T10:54:55;26.90;55.00
44851;DHT22;30583;48.714;9.386;2022-08-02T10:57:25;27.20;52.60
44851;DHT22;30583;48.714;9.386;2022-08-02T10:59:55;27.30;54.80
44851;DHT22;30583;48.714;9.386;2022-08-02T11:05:06;27.70;53.40
44851;DHT22;30583;48.714;9.386;2022-08-02T11:07:36;27.90;52.90
44851;DHT22;30583;48.714;9.386;2022-08-02T11:10:26;27.90;54.00
44851;DHT22;30583;48.714;9.386;2022-08-02T11:18:12;27.70;52.80
44851;DHT22;30583;48.714;9.386;2022-08-02T11:20:38;28.10;52.90
44851;DHT22;30583;48.714;9.386;2022-08-02T11:23:36;27.80;51.20
44851;DHT22;30583;48.714;9.386;2022-08-02T11:28:54;28.10;55.10
44851;DHT22;30583;48.714;9.386;2022-08-02T11:31:19;28.20;50.50
44851;DHT22;30583;48.714;9.386;2022-08-02T11:33:48;28.20;52.60
44851;DHT22;30583;48.714;9.386;2022-08-02T11:36:14;27.90;49.80
44851;DHT22;30583;48.714;9.386;2022-08-02T11:38:40;28.30;49.90
44851;DHT22;30583;48.714;9.386;2022-08-02T11:41:06;28.20;48.20
44851;DHT22;30583;48.714;9.386;2022-08-02T11:43:32;28.40;47.70
44851;DHT22;30583;48.714;9.386;2022-08-02T11:46:10;27.90;48.10
44851;DHT22;30583;48.714;9.386;2022-08-02T11:48:38;28.40;48.90
44851;DHT22;30583;48.714;9.386;2022-08-02T11:54:01;28.10;47.60
44851;DHT22;30583;48.714;9.386;2022-08-02T11:56:29;28.40;46.50
44851;DHT22;30583;48.714;9.386;2022-08-02T11:59:07;28.60;45.30
44851;DHT22;30583;48.714;9.386;2022-08-02T12:01:35;28.30;46.40
44851;DHT22;30583;48.714;9.386;2022-08-02T12:04:02;28.50;45.60
44851;DHT22;30583;48.714;9.386;2022-08-02T12:06:28;28.80;47.90
44851;DHT22;30583;48.714;9.386;2022-08-02T12:09:05;28.90;46.90
44851;DHT22;30583;48.714;9.386;2022-08-02T12:11:31;28.90;45.10
44851;DHT22;30583;48.714;9.386;2022-08-02T12:13:58;29.00;45.30
44851;DHT22;30583;48.714;9.386;2022-08-02T12:16:24;29.00;46.00
44851;DHT22;30583;48.714;9.386;2022-08-02T12:19:09;29.10;45.80
44851;DHT22;30583;48.714;9.386;2022-08-02T12:21:44;29.20;45.60
44851;DHT22;30583;48.714;9.386;2022-08-02T12:24:10;29.00;45.10
44851;DHT22;30583;48.714;9.386;2022-08-02T12:26:46;29.10;44.30
44851;DHT22;30583;48.714;9.386;2022-08-02T12:29:13;28.40;46.40
44851;DHT22;30583;48.714;9.386;2022-08-02T12:31:44;28.70;44.60
44851;DHT22;30583;48.714;9.386;2022-08-02T12:34:15;29.40;48.30
44851;DHT22;30583;48.714;9.386;2022-08-02T12:37:08;29.20;46.70
44851;DHT22;30583;48.714;9.386;2022-08-02T12:39:41;29.70;46.50
44851;DHT22;30583;48.714;9.386;2022-08-02T12:42:09;29.60;46.50
44851;DHT22;30583;48.714;9.386;2022-08-02T12:44:37;29.60;43.60
44851;DHT22;30583;48.714;9.386;2022-08-02T12:47:07;29.40;43.80
44851;DHT22;30583;48.714;9.386;2022-08-02T12:49:34;29.50;44.60
44851;DHT22;30583;48.714;9.386;2022-08-02T12:52:00;29.50;44.30
44851;DHT22;30583;48.714;9.386;2022-08-02T12:54:34;29.80;46.90
44851;DHT22;30583;48.714;9.386;2022-08-02T12:57:11;30.10;45.00
44851;DHT22;30583;48.714;9.386;2022-08-02T12:59:38;29.90;45.20
44851;DHT22;30583;48.714;9.386;2022-08-02T13:02:09;30.00;43.50
44851;DHT22;30583;48.714;9.386;2022-08-02T13:04:39;29.40;42.30
44851;DHT22;30583;48.714;9.386;2022-08-02T13:07:05;29.80;46.60
44851;DHT22;30583;48.714;9.386;2022-08-02T13:09:39;29.80;43.50
44851;DHT22;30583;48.714;9.386;2022-08-02T13:12:06;29.90;43.50
44851;DHT22;30583;48.714;9.386;2022-08-02T13:14:33;30.00;41.70
44851;DHT22;30583;48.714;9.386;2022-08-02T13:16:59;30.20;42.20
44851;DHT22;30583;48.714;9.386;2022-08-02T13:19:24;29.80;42.10
44851;DHT22;30583;48.714;9.386;2022-08-02T13:21:51;29.70;43.50
44851;DHT22;30583;48.714;9.386;2022-08-02T13:24:16;29.70;41.70
44851;DHT22;30583;48.714;9.386;2022-08-02T13:26:43;29.60;43.20
44851;DHT22;30583;48.714;9.386;2022-08-02T13:29:09;30.00;41.80
44851;DHT22;30583;48.714;9.386;2022-08-02T13:31:35;30.20;40.70
44851;DHT22;30583;48.714;9.386;2022-08-02T13:34:04;29.70;41.60
44851;DHT22;30583;48.714;9.386;2022-08-02T13:36:32;30.10;41.40
44851;DHT22;30583;48.714;9.386;2022-08-02T13:38:58;29.90;41.40
44851;DHT22;30583;48.714;9.386;2022-08-02T13:41:23;29.80;42.50
44851;DHT22;30583;48.714;9.386;2022-08-02T13:43:49;30.20;42.30
44851;DHT22;30583;48.714;9.386;2022-08-02T13:46:15;30.00;41.60
44851;DHT22;30583;48.714;9.386;2022-08-02T13:48:40;30.60;42.20
44851;DHT22;30583;48.714;9.386;2022-08-02T13:51:06;30.70;41.20
44851;DHT22;30583;48.714;9.386;2022-08-02T13:53:39;30.20;42.00
44851;DHT22;30583;48.714;9.386;2022-08-02T13:56:05;30.50;41.60
44851;DHT22;30583;48.714;9.386;2022-08-02T13:58:30;30.40;42.20
44851;DHT22;30583;48.714;9.386;2022-08-02T14:00:56;30.30;41.80
44851;DHT22;30583;48.714;9.386;2022-08-02T14:03:21;30.00;41.20
44851;DHT22;30583;48.714;9.386;2022-08-02T14:05:47;30.50;43.40
44851;DHT22;30583;48.714;9.386;2022-08-02T14:08:14;30.60;41.90
44851;DHT22;30583;48.714;9.386;2022-08-02T14:10:39;30.50;41.90
44851;DHT22;30583;48.714;9.386;2022-08-02T14:13:05;30.50;42.20
44851;DHT22;30583;48.714;9.386;2022-08-02T14:15:31;30.20;41.20
44851;DHT22;30583;48.714;9.386;2022-08-02T14:17:57;30.30;42.10
44851;DHT22;30583;48.714;9.386;2022-08-02T14:20:23;30.90;41.30
44851;DHT22;30583;48.714;9.386;2022-08-02T14:22:48;31.00;41.70
44851;DHT22;30583;48.714;9.386;2022-08-02T14:25:14;30.70;41.40
44851;DHT22;30583;48.714;9.386;2022-08-02T14:27:39;30.40;42.80
44851;DHT22;30583;48.714;9.386;2022-08-02T14:30:05;29.60;41.60
44851;DHT22;30583;48.714;9.386;2022-08-02T14:32:31;30.00;43.00
44851;DHT22;30583;48.714;9.386;2022-08-02T14:34:57;29.90;42.50
44851;DHT22;30583;48.714;9.386;2022-08-02T14:37:22;30.20;41.70
44851;DHT22;30583;48.714;9.386;2022-08-02T14:39:48;30.20;40.10
44851;DHT22;30583;48.714;9.386;2022-08-02T14:42:13;30.00;42.10
44851;DHT22;30583;48.714;9.386;2022-08-02T14:44:39;30.20;41.80
44851;DHT22;30583;48.714;9.386;2022-08-02T14:47:05;30.40;43.40
44851;DHT22;30583;48.714;9.386;2022-08-02T14:49:30;30.70;41.30
44851;DHT22;30583;48.714;9.386;2022-08-02T14:51:56;30.70;40.90
44851;DHT22;30583;48.714;9.386;2022-08-02T14:54:23;30.50;41.40
44851;DHT22;30583;48.714;9.386;2022-08-02T14:56:56;30.70;41.80
44851;DHT22;30583;48.714;9.386;2022-08-02T14:59:22;31.30;41.60
44851;DHT22;30583;48.714;9.386;2022-08-02T15:01:47;31.40;40.40
44851;DHT22;30583;48.714;9.386;2022-08-02T15:04:13;31.30;39.70
44851;DHT22;30583;48.714;9.386;2022-08-02T15:06:38;31.20;40.50
44851;DHT22;30583;48.714;9.386;2022-08-02T15:09:04;31.30;39.80
44851;DHT22;30583;48.714;9.386;2022-08-02T15:11:30;32.00;40.70
44851;DHT22;30583;48.714;9.386;2022-08-02T15:13:55;32.60;40.60
44851;DHT22;30583;48.714;9.386;2022-08-02T15:16:23;33.20;39.20
44851;DHT22;30583;48.714;9.386;2022-08-02T15:18:49;33.60;37.60
44851;DHT22;30583;48.714;9.386;2022-08-02T15:21:14;33.30;36.40
44851;DHT22;30583;48.714;9.386;2022-08-02T15:23:40;33.40;36.50
44851;DHT22;30583;48.714;9.386;2022-08-02T15:26:06;33.30;35.30
44851;DHT22;30583;48.714;9.386;2022-08-02T15:28:32;33.00;35.20
44851;DHT22;30583;48.714;9.386;2022-08-02T15:30:57;32.80;35.50
44851;DHT22;30583;48.714;9.386;2022-08-02T15:33:23;33.10;35.90
44851;DHT22;30583;48.714;9.386;2022-08-02T15:35:50;32.90;35.00
44851;DHT22;30583;48.714;9.386;2022-08-02T15:38:16;33.10;35.80
44851;DHT22;30583;48.714;9.386;2022-08-02T15:40:41;33.60;35.20
44851;DHT22;30583;48.714;9.386;2022-08-02T15:43:08;33.60;36.80
44851;DHT22;30583;48.714;9.386;2022-08-02T15:45:34;33.80;35.40
44851;DHT22;30583;48.714;9.386;2022-08-02T15:48:01;33.20;34.70
44851;DHT22;30583;48.714;9.386;2022-08-02T15:50:26;32.70;36.70
44851;DHT22;30583;48.714;9.386;2022-08-02T15:52:52;32.40;36.90
44851;DHT22;30583;48.714;9.386;2022-08-02T15:55:18;32.50;36.20
44851;DHT22;30583;48.714;9.386;2022-08-02T15:57:43;32.30;36.40
44851;DHT22;30583;48.714;9.386;2022-08-02T16:00:10;32.00;36.00
44851;DHT22;30583;48.714;9.386;2022-08-02T16:02:35;31.70;37.30
44851;DHT22;30583;48.714;9.386;2022-08-02T16:05:01;31.70;37.70